Cinebar, Washington
Current Conditions -  °F | °C
As of 7:55 AM on Saturday 25 Oct 2014 (Local Time) from KCLS Reporting Station
Drizzle Drizzle  
Wind Chill: 52°   Ceiling: 7500
Heat Index: 52°   Visibility: 10mi
Dew Point: 50°   Wind: 8mph
Humidity: 94%   Direction: 170°S
Pressure: 29.52"   Gusts: 16mph
Location:  46.6°N, 122.53°W
Report Text: KCLS 251455Z AUTO 17007G14KT 130V200 10SM -DZ FEW060 OVC075 11/10 A2952 RMK AO2
Loading
Personal Weather Stations






























Interactive Weather Map
Tropical Storm Tracking
New forecast layout! Learn more

10-Day Weather Forecast

Advertisements
Track Severe Weather on mobile